createdAt,value
2023-05-19T00:01:49.276Z,3.65
2023-05-19T00:04:16.152Z,4.20
2023-05-19T00:06:43.057Z,4.43
2023-05-19T00:09:10.277Z,4.10
2023-05-19T00:11:38.097Z,3.72
2023-05-19T00:14:07.183Z,3.58
2023-05-19T00:16:34.768Z,4.00
2023-05-19T00:19:03.078Z,3.78
2023-05-19T00:21:30.024Z,3.67
2023-05-19T00:23:56.901Z,4.63
2023-05-19T00:26:24.106Z,4.68
2023-05-19T00:28:51.104Z,4.13
2023-05-19T00:31:17.632Z,3.95
2023-05-19T00:33:44.328Z,4.15
2023-05-19T00:36:10.718Z,3.80
2023-05-19T00:38:37.678Z,4.00
2023-05-19T00:41:05.462Z,3.90
2023-05-19T00:43:32.362Z,3.58
2023-05-19T00:45:58.767Z,4.13
2023-05-19T00:48:26.061Z,4.00
2023-05-19T00:50:54.855Z,4.10
2023-05-19T00:53:24.408Z,3.80
2023-05-19T00:55:50.970Z,3.70
2023-05-19T00:58:19.007Z,4.25
2023-05-19T01:00:45.699Z,4.07
2023-05-19T01:03:12.400Z,4.22
2023-05-19T01:05:42.671Z,4.20
2023-05-19T01:08:09.242Z,4.00
2023-05-19T01:10:35.651Z,3.83
2023-05-19T01:13:03.618Z,4.07
2023-05-19T01:15:33.747Z,4.45
2023-05-19T01:18:28.439Z,4.38
2023-05-19T01:21:30.329Z,4.25
2023-05-19T01:24:22.669Z,4.13
2023-05-19T01:27:09.447Z,4.47
2023-05-19T01:30:05.493Z,3.92
2023-05-19T01:32:34.550Z,4.13
2023-05-19T01:35:01.485Z,3.85
2023-05-19T01:37:29.239Z,3.72
2023-05-19T01:39:56.050Z,3.67
2023-05-19T01:42:23.742Z,3.92
2023-05-19T01:44:51.482Z,4.72
2023-05-19T01:47:18.353Z,4.10
2023-05-19T01:49:44.741Z,3.72
2023-05-19T01:52:11.106Z,4.30
2023-05-19T01:54:37.478Z,4.20
2023-05-19T01:57:20.253Z,4.22
2023-05-19T02:00:16.266Z,3.53
2023-05-19T02:03:01.320Z,4.18
2023-05-19T02:05:39.867Z,4.35
2023-05-19T02:08:33.610Z,4.10
2023-05-19T02:11:25.865Z,3.85
2023-05-19T02:13:56.241Z,3.72
2023-05-19T02:16:28.491Z,3.90
2023-05-19T02:18:55.639Z,3.60
2023-05-19T02:21:22.078Z,3.63
2023-05-19T02:23:48.987Z,3.42
2023-05-19T02:26:15.386Z,3.90
2023-05-19T02:28:41.802Z,4.25
2023-05-19T02:31:08.178Z,4.00
2023-05-19T02:33:34.962Z,3.67
2023-05-19T02:36:01.325Z,3.95
2023-05-19T02:38:27.743Z,3.63
2023-05-19T02:40:54.137Z,3.90
2023-05-19T02:43:20.557Z,4.38
2023-05-19T02:45:46.952Z,4.05
2023-05-19T02:48:13.402Z,3.58
2023-05-19T02:50:39.787Z,3.65
2023-05-19T02:53:06.127Z,3.95
2023-05-19T02:55:32.490Z,3.92
2023-05-19T02:57:58.868Z,4.13
2023-05-19T03:00:25.230Z,3.30
2023-05-19T03:02:51.734Z,3.83
2023-05-19T03:05:18.270Z,3.75
2023-05-19T03:07:44.649Z,4.10
2023-05-19T03:10:11.120Z,4.30
2023-05-19T03:12:37.478Z,3.92
2023-05-19T03:15:04.119Z,4.28
2023-05-19T03:17:30.518Z,4.35
2023-05-19T03:19:56.927Z,4.10
2023-05-19T03:24:49.618Z,4.18
2023-05-19T03:27:16.002Z,4.25
2023-05-19T03:32:08.738Z,3.80
2023-05-19T03:34:35.154Z,4.10
2023-05-19T03:39:27.737Z,4.80
2023-05-19T03:44:20.423Z,4.65
2023-05-19T03:49:13.052Z,3.65
2023-05-19T03:51:39.461Z,3.47
2023-05-19T03:56:32.253Z,3.20
2023-05-19T03:58:58.594Z,3.38
2023-05-19T04:03:51.253Z,3.72
2023-05-19T04:06:18.572Z,3.15
2023-05-19T04:08:44.937Z,3.30
2023-05-19T04:13:37.714Z,3.35
2023-05-19T04:16:04.581Z,3.20
2023-05-19T04:18:31.090Z,3.72
2023-05-19T04:20:57.466Z,3.15
2023-05-19T04:25:50.159Z,3.15
2023-05-19T04:28:16.624Z,3.28
2023-05-19T04:30:43.082Z,3.13
2023-05-19T04:33:09.466Z,3.22
2023-05-19T04:35:35.894Z,3.70
2023-05-19T04:40:28.529Z,3.33
2023-05-19T04:42:54.909Z,3.10
2023-05-19T04:45:21.289Z,4.45
2023-05-19T04:47:47.663Z,4.53
2023-05-19T04:50:14.178Z,4.88
2023-05-19T04:52:40.946Z,5.53
2023-05-19T04:55:07.687Z,5.68
2023-05-19T04:57:34.091Z,5.45
2023-05-19T05:00:00.513Z,6.30
2023-05-19T05:02:26.987Z,6.40
2023-05-19T05:04:53.692Z,5.90
2023-05-19T05:07:23.713Z,6.40
2023-05-19T05:09:50.441Z,5.55
2023-05-19T05:12:18.304Z,6.28
2023-05-19T05:14:45.064Z,6.45
2023-05-19T05:17:12.410Z,6.05
2023-05-19T05:19:39.106Z,5.72
2023-05-19T05:22:06.001Z,5.47
2023-05-19T05:24:32.600Z,5.80
2023-05-19T05:26:59.358Z,5.90
2023-05-19T05:29:25.731Z,6.30
2023-05-19T05:31:52.093Z,5.20
2023-05-19T05:34:18.520Z,4.93
2023-05-19T05:36:44.849Z,5.20
2023-05-19T05:39:11.209Z,4.68
2023-05-19T05:41:37.593Z,5.00
2023-05-19T05:44:04.542Z,5.15
2023-05-19T05:48:59.032Z,4.93
2023-05-19T05:51:25.652Z,5.00
2023-05-19T05:53:54.335Z,4.57
2023-05-19T05:56:21.608Z,4.72
2023-05-19T05:58:48.104Z,4.50
2023-05-19T06:01:14.559Z,4.25
2023-05-19T06:03:42.228Z,4.68
2023-05-19T06:06:08.631Z,4.78
2023-05-19T06:08:34.978Z,4.75
2023-05-19T06:11:01.330Z,4.70
2023-05-19T06:13:27.653Z,4.72
2023-05-19T06:15:54.031Z,4.75
2023-05-19T06:18:20.407Z,4.68
2023-05-19T06:20:46.755Z,4.70
2023-05-19T06:23:13.099Z,4.75
2023-05-19T06:25:39.452Z,4.63
2023-05-19T06:28:05.791Z,4.63
2023-05-19T06:30:32.333Z,4.80
2023-05-19T06:32:58.984Z,5.00
2023-05-19T06:35:25.441Z,4.35
2023-05-19T06:37:51.808Z,4.78
2023-05-19T06:40:18.180Z,4.82
2023-05-19T06:42:44.499Z,4.43
2023-05-19T06:45:11.019Z,4.50
2023-05-19T06:47:37.412Z,4.55
2023-05-19T06:50:04.224Z,4.28
2023-05-19T06:52:30.626Z,4.22
2023-05-19T06:54:57.003Z,4.57
2023-05-19T06:57:23.484Z,4.40
2023-05-19T06:59:49.854Z,4.45
2023-05-19T07:02:16.256Z,4.40
2023-05-19T07:04:42.820Z,4.18
2023-05-19T07:07:09.156Z,4.15
2023-05-19T07:09:35.611Z,4.32
2023-05-19T07:12:02.212Z,4.20
2023-05-19T07:14:28.609Z,3.75
2023-05-19T07:16:55.132Z,3.88
2023-05-19T07:19:21.664Z,3.60
2023-05-19T07:21:48.117Z,4.63
2023-05-19T07:24:14.470Z,3.80
2023-05-19T07:26:41.652Z,4.13
2023-05-19T07:29:08.023Z,4.43
2023-05-19T07:31:34.391Z,3.92
2023-05-19T07:34:00.792Z,4.00
2023-05-19T07:36:27.217Z,3.60
2023-05-19T07:38:53.622Z,3.78
2023-05-19T07:41:19.997Z,4.18
2023-05-19T07:43:46.345Z,3.83
2023-05-19T07:46:12.750Z,4.00
2023-05-19T07:48:39.129Z,3.38
2023-05-19T07:51:05.515Z,3.22
2023-05-19T07:53:31.939Z,3.25
2023-05-19T07:55:58.827Z,2.90
2023-05-19T07:58:25.317Z,3.42
2023-05-19T08:00:51.681Z,3.53
2023-05-19T08:03:18.377Z,3.17
2023-05-19T08:05:44.947Z,2.78
2023-05-19T08:08:11.302Z,3.90
2023-05-19T08:10:37.747Z,2.97
2023-05-19T08:13:04.494Z,3.22
2023-05-19T08:15:31.047Z,2.83
2023-05-19T08:17:57.514Z,2.60
2023-05-19T08:20:24.004Z,2.80
2023-05-19T08:22:50.416Z,2.60
2023-05-19T08:25:16.962Z,2.67
2023-05-19T08:27:43.331Z,2.28
2023-05-19T08:30:10.234Z,2.90
2023-05-19T08:32:36.636Z,2.40
2023-05-19T08:35:03.205Z,2.72
2023-05-19T08:37:30.384Z,2.45
2023-05-19T08:39:57.809Z,2.40
2023-05-19T08:42:24.142Z,2.47
2023-05-19T08:44:50.555Z,2.60
2023-05-19T08:47:17.465Z,2.63
2023-05-19T08:49:45.677Z,2.63
2023-05-19T08:52:43.754Z,2.17
2023-05-19T08:55:39.632Z,2.40
2023-05-19T08:58:06.396Z,1.90
2023-05-19T09:00:33.560Z,2.17
2023-05-19T09:03:16.934Z,2.22
2023-05-19T09:05:45.571Z,2.30
2023-05-19T09:08:12.608Z,2.67
2023-05-19T09:10:39.284Z,2.20
2023-05-19T09:13:05.903Z,2.00
2023-05-19T09:15:32.703Z,2.10
2023-05-19T09:18:10.900Z,2.17
2023-05-19T09:20:39.623Z,1.90
2023-05-19T09:23:06.121Z,2.33
2023-05-19T09:25:32.701Z,2.03
2023-05-19T09:27:59.256Z,2.30
2023-05-19T09:30:25.737Z,2.17
2023-05-19T09:32:52.337Z,2.28
2023-05-19T09:35:18.792Z,1.90
2023-05-19T09:37:45.336Z,2.20
2023-05-19T09:40:15.086Z,2.15
2023-05-19T09:42:42.105Z,2.90
2023-05-19T09:45:08.974Z,2.30
2023-05-19T09:47:35.985Z,1.85
2023-05-19T09:50:04.164Z,2.40
2023-05-19T09:52:30.615Z,1.88
2023-05-19T09:54:57.140Z,2.10
2023-05-19T09:57:26.850Z,2.22
2023-05-19T09:59:55.114Z,1.92
2023-05-19T10:02:23.000Z,2.47
2023-05-19T10:04:51.054Z,2.10
2023-05-19T10:07:18.932Z,2.30
2023-05-19T10:09:46.023Z,2.40
2023-05-19T10:12:13.251Z,2.53
2023-05-19T10:14:40.626Z,2.88
2023-05-19T10:17:08.307Z,2.55
2023-05-19T10:19:35.983Z,2.65
2023-05-19T10:22:02.401Z,2.50
2023-05-19T10:24:28.779Z,2.50
2023-05-19T10:27:01.138Z,2.70
2023-05-19T10:29:30.102Z,2.28
2023-05-19T10:32:01.249Z,2.67
2023-05-19T10:34:47.756Z,2.60
2023-05-19T10:37:42.338Z,1.77
2023-05-19T10:40:29.212Z,2.33
2023-05-19T10:43:15.917Z,2.20
2023-05-19T10:45:51.158Z,2.40
2023-05-19T10:48:20.355Z,2.40
2023-05-19T10:50:47.282Z,2.50
2023-05-19T10:53:17.983Z,2.30
2023-05-19T10:55:46.544Z,2.35
2023-05-19T10:58:12.963Z,1.92
2023-05-19T11:00:39.888Z,2.70
2023-05-19T11:03:16.451Z,2.15
2023-05-19T11:05:43.046Z,2.30
2023-05-19T11:08:09.434Z,2.33
2023-05-19T11:10:35.772Z,2.28
2023-05-19T11:13:06.570Z,2.30
2023-05-19T11:15:36.358Z,1.95
2023-05-19T11:18:04.407Z,2.05
2023-05-19T11:20:31.907Z,2.10
2023-05-19T11:23:08.387Z,1.98
2023-05-19T11:25:51.811Z,2.30
2023-05-19T11:28:20.645Z,2.20
2023-05-19T11:30:49.036Z,2.03
2023-05-19T11:33:15.828Z,2.28
2023-05-19T11:35:43.509Z,1.98
2023-05-19T11:38:11.046Z,2.03
2023-05-19T11:40:37.554Z,1.88
2023-05-19T11:43:03.899Z,1.90
2023-05-19T11:45:32.210Z,2.10
2023-05-19T11:48:02.772Z,2.00
2023-05-19T11:50:31.727Z,2.17
2023-05-19T11:53:00.350Z,1.80
2023-05-19T11:55:27.426Z,2.50
2023-05-19T11:58:03.879Z,2.50
2023-05-19T12:03:09.414Z,2.40
2023-05-19T12:05:41.755Z,2.10
2023-05-19T12:08:09.601Z,2.75
2023-05-19T12:10:36.676Z,2.10
2023-05-19T12:13:03.345Z,2.10
2023-05-19T12:15:31.543Z,1.92
2023-05-19T12:18:02.378Z,2.20
2023-05-19T12:20:30.421Z,2.58
2023-05-19T12:22:57.254Z,2.33
2023-05-19T12:25:24.341Z,2.20
2023-05-19T12:27:51.207Z,2.50
2023-05-19T12:30:17.586Z,2.00
2023-05-19T12:32:44.201Z,2.20
2023-05-19T12:35:10.611Z,2.30
2023-05-19T12:37:41.583Z,1.90
2023-05-19T12:40:09.776Z,2.13
2023-05-19T12:42:36.314Z,2.30
2023-05-19T12:45:04.084Z,1.98
2023-05-19T12:47:32.182Z,2.40
2023-05-19T12:50:09.335Z,2.30
2023-05-19T12:52:50.065Z,2.05
2023-05-19T12:55:17.135Z,2.05
2023-05-19T12:57:45.119Z,2.00
2023-05-19T13:00:15.419Z,1.90
2023-05-19T13:03:07.124Z,2.00
2023-05-19T13:05:38.253Z,2.00
2023-05-19T13:08:09.248Z,1.83
2023-05-19T13:10:36.975Z,2.10
2023-05-19T13:13:03.897Z,1.77
2023-05-19T13:15:32.130Z,2.10
2023-05-19T13:18:00.148Z,2.20
2023-05-19T13:20:28.536Z,2.05
2023-05-19T13:22:55.669Z,2.03
2023-05-19T13:25:21.994Z,1.98
2023-05-19T13:27:49.002Z,1.90
2023-05-19T13:30:16.111Z,2.10
2023-05-19T13:32:42.454Z,1.90
2023-05-19T13:35:09.841Z,1.83
2023-05-19T13:37:36.367Z,2.20
2023-05-19T13:40:03.061Z,1.90
2023-05-19T13:42:29.472Z,2.05
2023-05-19T13:44:55.883Z,2.20
2023-05-19T13:47:26.034Z,2.13
2023-05-19T13:49:52.936Z,1.70
2023-05-19T13:52:20.760Z,1.92
2023-05-19T13:54:47.748Z,2.17
2023-05-19T13:57:15.301Z,2.03
2023-05-19T13:59:57.134Z,2.10
2023-05-19T14:02:27.911Z,2.28
2023-05-19T14:04:54.447Z,2.13
2023-05-19T14:07:20.843Z,2.20
2023-05-19T14:09:47.228Z,2.35
2023-05-19T14:12:13.645Z,2.05
2023-05-19T14:14:40.049Z,2.10
2023-05-19T14:17:06.494Z,2.10
2023-05-19T14:19:32.926Z,2.00
2023-05-19T14:21:59.294Z,2.20
2023-05-19T14:24:25.765Z,2.08
2023-05-19T14:26:52.120Z,3.47
2023-05-19T14:29:18.668Z,2.15
2023-05-19T14:31:45.049Z,2.70
2023-05-19T14:34:11.519Z,2.58
2023-05-19T14:36:37.863Z,2.13
2023-05-19T14:39:04.241Z,2.10
2023-05-19T14:41:30.584Z,2.50
2023-05-19T14:43:56.927Z,2.22
2023-05-19T14:46:23.410Z,2.03
2023-05-19T14:48:49.848Z,2.30
2023-05-19T14:51:16.199Z,2.30
2023-05-19T14:53:42.556Z,2.42
2023-05-19T14:56:08.892Z,2.63
2023-05-19T14:58:35.222Z,2.08
2023-05-19T15:01:01.649Z,2.33
2023-05-19T15:03:28.109Z,2.33
2023-05-19T15:05:54.548Z,2.30
2023-05-19T15:08:20.922Z,2.08
2023-05-19T15:10:49.193Z,2.20
2023-05-19T15:13:16.155Z,2.15
2023-05-19T15:15:42.513Z,2.30
2023-05-19T15:18:08.909Z,2.72
2023-05-19T15:20:35.511Z,2.20
2023-05-19T15:23:02.110Z,2.50
2023-05-19T15:25:28.517Z,2.50
2023-05-19T15:27:54.873Z,2.20
2023-05-19T15:30:21.234Z,2.33
2023-05-19T15:32:47.650Z,2.35
2023-05-19T15:35:14.133Z,2.30
2023-05-19T15:37:40.514Z,2.22
2023-05-19T15:40:09.156Z,2.00
2023-05-19T15:42:35.506Z,2.20
2023-05-19T15:45:02.032Z,2.00
2023-05-19T15:47:28.389Z,2.13
2023-05-19T15:49:54.822Z,2.33
2023-05-19T15:52:21.225Z,1.90
2023-05-19T15:54:47.581Z,2.30
2023-05-19T15:57:13.966Z,1.73
2023-05-19T15:59:40.324Z,2.30
2023-05-19T16:02:07.159Z,1.98
2023-05-19T16:04:33.608Z,1.90
2023-05-19T16:06:59.961Z,2.10
2023-05-19T16:09:26.367Z,2.05
2023-05-19T16:11:52.700Z,2.40
2023-05-19T16:14:19.048Z,1.80
2023-05-19T16:16:45.411Z,2.05
2023-05-19T16:19:11.897Z,1.67
2023-05-19T16:21:38.282Z,1.98
2023-05-19T16:24:04.869Z,1.80
2023-05-19T16:26:31.232Z,1.90
2023-05-19T16:28:57.578Z,2.20
2023-05-19T16:31:23.969Z,2.00
2023-05-19T16:33:50.380Z,1.90
2023-05-19T16:36:16.835Z,1.70
2023-05-19T16:38:43.235Z,2.00
2023-05-19T16:41:12.695Z,1.70
2023-05-19T16:43:39.126Z,1.83
2023-05-19T16:46:05.661Z,1.92
2023-05-19T16:48:32.122Z,2.08
2023-05-19T16:50:58.481Z,2.00
2023-05-19T16:53:24.825Z,2.13
2023-05-19T16:55:51.190Z,2.00
2023-05-19T16:58:17.585Z,2.15
2023-05-19T17:00:43.937Z,1.90
2023-05-19T17:03:10.347Z,2.10
2023-05-19T17:05:36.862Z,2.10
2023-05-19T17:08:03.300Z,2.00
2023-05-19T17:10:29.640Z,1.88
2023-05-19T17:12:56.030Z,1.80
2023-05-19T17:15:22.382Z,2.00
2023-05-19T17:17:48.801Z,2.20
2023-05-19T17:20:15.292Z,2.08
2023-05-19T17:22:41.668Z,1.83
2023-05-19T17:25:08.641Z,1.77
2023-05-19T17:27:35.070Z,1.92
2023-05-19T17:30:01.732Z,2.03
2023-05-19T17:32:28.305Z,1.75
2023-05-19T17:34:54.827Z,1.90
2023-05-19T17:37:21.265Z,2.08
2023-05-19T17:39:47.597Z,1.80
2023-05-19T17:42:13.997Z,1.67
2023-05-19T17:44:40.378Z,1.73
2023-05-19T17:47:06.773Z,1.73
2023-05-19T17:49:33.476Z,1.80
2023-05-19T17:52:00.212Z,2.10
2023-05-19T17:54:26.843Z,1.60
2023-05-19T17:56:55.386Z,1.90
2023-05-19T17:59:22.110Z,1.50
2023-05-19T18:01:48.699Z,1.33
2023-05-19T18:04:16.167Z,1.60
2023-05-19T18:06:44.344Z,1.55
2023-05-19T18:09:12.921Z,1.80
2023-05-19T18:11:39.292Z,1.60
2023-05-19T18:14:05.701Z,1.02
2023-05-19T18:16:32.982Z,1.92
2023-05-19T18:18:59.437Z,1.50
2023-05-19T18:21:25.827Z,1.80
2023-05-19T18:23:52.194Z,1.45
2023-05-19T18:26:18.627Z,1.50
2023-05-19T18:28:45.084Z,1.88
2023-05-19T18:31:11.477Z,1.90
2023-05-19T18:33:37.862Z,1.73
2023-05-19T18:36:04.424Z,1.58
2023-05-19T18:38:30.778Z,1.67
2023-05-19T18:40:57.308Z,1.75
2023-05-19T18:43:23.667Z,2.28
2023-05-19T18:45:50.125Z,1.60
2023-05-19T18:48:16.540Z,2.00
2023-05-19T18:50:42.912Z,1.83
2023-05-19T18:53:09.354Z,1.85
2023-05-19T18:55:38.277Z,2.20
2023-05-19T18:58:05.006Z,1.80
2023-05-19T19:00:31.578Z,2.03
2023-05-19T19:02:58.282Z,1.90
2023-05-19T19:05:24.743Z,2.00
2023-05-19T19:07:51.107Z,1.90
2023-05-19T19:10:17.578Z,2.03
2023-05-19T19:12:43.948Z,2.15
2023-05-19T19:15:11.163Z,1.98
2023-05-19T19:17:38.248Z,2.00
2023-05-19T19:20:05.118Z,2.00
2023-05-19T19:22:31.613Z,2.10
2023-05-19T19:24:57.974Z,1.75
2023-05-19T19:27:24.375Z,2.22
2023-05-19T19:29:50.732Z,2.38
2023-05-19T19:32:17.253Z,2.50
2023-05-19T19:34:43.617Z,2.75
2023-05-19T19:37:10.058Z,2.33
2023-05-19T19:39:36.864Z,2.70
2023-05-19T19:42:03.354Z,2.42
2023-05-19T19:44:29.689Z,2.30
2023-05-19T19:46:56.130Z,2.85
2023-05-19T19:49:22.542Z,2.53
2023-05-19T19:51:48.950Z,2.50
2023-05-19T19:54:15.351Z,2.40
2023-05-19T19:56:41.710Z,2.40
2023-05-19T19:59:08.061Z,2.40
2023-05-19T20:01:34.474Z,2.30
2023-05-19T20:04:01.120Z,2.40
2023-05-19T20:06:27.577Z,2.80
2023-05-19T20:08:55.159Z,2.17
2023-05-19T20:11:21.551Z,2.30
2023-05-19T20:13:47.918Z,2.20
2023-05-19T20:16:14.309Z,1.92
2023-05-19T20:18:40.712Z,2.13
2023-05-19T20:21:07.069Z,2.10
2023-05-19T20:23:33.513Z,2.30
2023-05-19T20:26:10.876Z,2.35
2023-05-19T20:28:38.672Z,2.40
2023-05-19T20:31:05.750Z,2.67
2023-05-19T20:33:32.206Z,2.60
2023-05-19T20:35:58.580Z,2.50
2023-05-19T20:38:24.947Z,2.80
2023-05-19T20:40:51.397Z,2.85
2023-05-19T20:43:17.835Z,2.88
2023-05-19T20:45:44.517Z,3.63
2023-05-19T20:48:11.356Z,2.90
2023-05-19T20:50:39.247Z,3.20
2023-05-19T20:53:05.622Z,2.92
2023-05-19T20:55:32.204Z,3.40
2023-05-19T20:57:58.675Z,3.47
2023-05-19T21:00:25.041Z,3.25
2023-05-19T21:02:51.472Z,3.70
2023-05-19T21:05:17.951Z,3.35
2023-05-19T21:07:44.369Z,3.20
2023-05-19T21:10:11.251Z,3.13
2023-05-19T21:12:37.716Z,3.15
2023-05-19T21:15:04.360Z,3.35
2023-05-19T21:17:30.759Z,3.42
2023-05-19T21:19:57.276Z,3.30
2023-05-19T21:22:24.617Z,3.40
2023-05-19T21:24:50.976Z,3.70
2023-05-19T21:27:17.389Z,3.35
2023-05-19T21:29:43.755Z,3.53
2023-05-19T21:32:10.198Z,3.60
2023-05-19T21:34:36.588Z,3.58
2023-05-19T21:37:03.035Z,3.40
2023-05-19T21:39:29.385Z,3.95
2023-05-19T21:41:55.725Z,3.83
2023-05-19T21:44:22.112Z,3.60
2023-05-19T21:46:48.500Z,3.72
2023-05-19T21:49:14.904Z,3.50
2023-05-19T21:51:41.255Z,3.75
2023-05-19T21:54:07.658Z,3.65
2023-05-19T21:56:34.024Z,3.90
2023-05-19T21:59:00.375Z,3.45
2023-05-19T22:01:26.757Z,3.97
2023-05-19T22:03:53.206Z,4.00
2023-05-19T22:06:19.604Z,3.80
2023-05-19T22:08:45.937Z,3.88
2023-05-19T22:11:12.332Z,3.63
2023-05-19T22:13:38.685Z,3.50
2023-05-19T22:16:05.322Z,3.85
2023-05-19T22:18:31.730Z,3.17
2023-05-19T22:20:58.066Z,3.95
2023-05-19T22:23:24.432Z,3.50
2023-05-19T22:25:50.808Z,3.47
2023-05-19T22:28:17.219Z,3.60
2023-05-19T22:30:43.645Z,3.58
2023-05-19T22:33:11.724Z,3.67
2023-05-19T22:35:38.521Z,3.58
2023-05-19T22:38:04.920Z,3.50
2023-05-19T22:40:31.496Z,3.65
2023-05-19T22:42:58.044Z,3.78
2023-05-19T22:45:24.454Z,3.33
2023-05-19T22:47:50.951Z,3.97
2023-05-19T22:50:17.450Z,3.60
2023-05-19T22:52:43.829Z,4.05
2023-05-19T22:55:10.183Z,3.80
2023-05-19T22:57:36.542Z,3.70
2023-05-19T23:00:03.449Z,4.05
2023-05-19T23:02:29.906Z,4.32
2023-05-19T23:04:56.297Z,3.58
2023-05-19T23:07:22.640Z,3.75
2023-05-19T23:09:49.017Z,3.47
2023-05-19T23:12:15.386Z,4.20
2023-05-19T23:14:41.802Z,3.85
2023-05-19T23:17:08.258Z,4.03
2023-05-19T23:19:34.650Z,3.80
2023-05-19T23:22:01.014Z,4.13
2023-05-19T23:24:27.399Z,4.13
2023-05-19T23:26:54.170Z,3.67
2023-05-19T23:29:20.540Z,4.40
2023-05-19T23:31:46.966Z,4.30
2023-05-19T23:34:13.350Z,3.83
2023-05-19T23:36:39.806Z,4.20
2023-05-19T23:39:06.194Z,4.82
2023-05-19T23:41:32.662Z,4.03
2023-05-19T23:43:59.041Z,4.50
2023-05-19T23:46:25.601Z,4.20
2023-05-19T23:48:52.013Z,4.90
2023-05-19T23:51:18.392Z,4.60
2023-05-19T23:53:44.767Z,4.18
2023-05-19T23:56:11.120Z,4.20
2023-05-19T23:58:37.475Z,4.70
